Golden, Canada
Current Conditions -  °F | °C
As of 6:00 PM on Friday 31 Oct 2014 (Local Time) from CYGE Reporting Station
Rain Showers Rain Showers  
Wind Chill: 45°   Ceiling: 7500
Heat Index: 45°   Visibility: 15mi
Dew Point: 45°   Wind: 0mph
Humidity: 100%   Direction: NA
Pressure: 29.7"   Gusts: NA
Location:  51.29°N, 116.96°W
Report Text: CYGE 010000Z 00000KT 15SM -SHRA FEW006 SCT025 BKN075 OVC120 07/07 A2970 RMK ST1SC3AS3AS1 LAST OBS/NEXT 011200Z SLP072
Loading
Personal Weather Stations






























Interactive Weather Map
Tropical Storm Tracking
New forecast layout! Learn more

10-Day Weather Forecast

Advertisements
Track Severe Weather on mobile